createdAt,value
2017-09-30T00:00:39.702Z,84.60
2017-09-30T00:03:07.705Z,84.30
2017-09-30T00:05:35.655Z,84.70
2017-09-30T00:08:03.613Z,84.70
2017-09-30T00:10:32.301Z,85.50
2017-09-30T00:13:01.049Z,85.80
2017-09-30T00:15:28.976Z,85.40
2017-09-30T00:17:56.940Z,86.10
2017-09-30T00:20:24.859Z,85.60
2017-09-30T00:22:53.602Z,85.70
2017-09-30T00:25:21.519Z,85.30
2017-09-30T00:27:49.523Z,84.90
2017-09-30T00:30:17.470Z,84.80
2017-09-30T00:32:45.460Z,84.80
2017-09-30T00:35:13.397Z,85.20
2017-09-30T00:37:41.372Z,85.00
2017-09-30T00:40:09.349Z,85.00
2017-09-30T00:42:37.322Z,84.40
2017-09-30T00:45:05.237Z,85.40
2017-09-30T00:47:34.611Z,85.20
2017-09-30T00:50:02.583Z,84.90
2017-09-30T00:52:30.586Z,85.40
2017-09-30T00:54:59.178Z,85.50
2017-09-30T00:57:27.202Z,85.60
2017-09-30T00:59:58.197Z,86.90
2017-09-30T01:02:26.257Z,87.30
2017-09-30T01:04:54.160Z,86.50
2017-09-30T01:07:25.998Z,86.90
2017-09-30T01:09:54.532Z,86.20
2017-09-30T01:12:22.479Z,86.60
2017-09-30T01:14:50.392Z,86.70
2017-09-30T01:17:19.122Z,86.70
2017-09-30T01:19:47.214Z,86.70
2017-09-30T01:22:15.182Z,86.60
2017-09-30T01:24:43.232Z,85.90
2017-09-30T01:27:11.206Z,85.80
2017-09-30T01:29:39.209Z,85.40
2017-09-30T01:32:07.186Z,85.80
2017-09-30T01:34:35.199Z,85.50
2017-09-30T01:37:04.116Z,85.60
2017-09-30T01:39:32.132Z,85.90
2017-09-30T01:42:00.817Z,85.30
2017-09-30T01:44:29.604Z,85.30
2017-09-30T01:46:57.554Z,85.30
2017-09-30T01:49:25.592Z,85.90
2017-09-30T01:51:53.541Z,86.60
2017-09-30T01:54:21.545Z,86.40
2017-09-30T01:56:49.594Z,86.60
2017-09-30T01:59:17.637Z,86.40
2017-09-30T02:01:46.392Z,86.90
2017-09-30T02:04:14.430Z,86.90
2017-09-30T02:06:42.531Z,86.90
2017-09-30T02:09:10.545Z,86.40
2017-09-30T02:11:39.234Z,86.20
2017-09-30T02:14:07.965Z,86.10
2017-09-30T02:16:36.050Z,86.10
2017-09-30T02:19:03.979Z,86.00
2017-09-30T02:21:31.967Z,86.30
2017-09-30T02:24:00.868Z,85.90
2017-09-30T02:26:28.838Z,85.60
2017-09-30T02:28:56.746Z,85.60
2017-09-30T02:31:24.733Z,85.70
2017-09-30T02:33:52.704Z,86.00
2017-09-30T02:36:20.666Z,85.90
2017-09-30T02:38:48.577Z,86.00
2017-09-30T02:41:16.567Z,86.40
2017-09-30T02:43:44.476Z,87.80
2017-09-30T02:46:13.240Z,87.90
2017-09-30T02:48:41.161Z,87.80
2017-09-30T02:51:09.130Z,88.30
2017-09-30T02:53:37.042Z,88.10
2017-09-30T02:56:05.000Z,88.00
2017-09-30T02:58:34.178Z,87.60
2017-09-30T03:01:02.134Z,86.70
2017-09-30T03:03:30.311Z,87.10
2017-09-30T03:05:58.268Z,86.90
2017-09-30T03:08:26.952Z,88.00
2017-09-30T03:10:54.927Z,87.30
2017-09-30T03:13:23.614Z,85.80
2017-09-30T03:15:51.627Z,85.80
2017-09-30T03:18:19.578Z,85.30
2017-09-30T03:20:47.583Z,85.60
2017-09-30T03:23:15.517Z,86.70
2017-09-30T03:25:43.451Z,86.90
2017-09-30T03:28:17.467Z,87.00
2017-09-30T03:30:46.161Z,86.50
2017-09-30T03:33:14.135Z,86.40
2017-09-30T03:35:42.057Z,86.60
2017-09-30T03:38:10.026Z,87.00
2017-09-30T03:40:37.935Z,87.30
2017-09-30T03:43:05.911Z,87.60
2017-09-30T03:45:34.583Z,88.00
2017-09-30T03:48:03.325Z,87.30
2017-09-30T03:50:31.243Z,87.20
2017-09-30T03:52:59.213Z,87.90
2017-09-30T03:55:27.883Z,89.00
2017-09-30T03:57:55.937Z,89.00
2017-09-30T04:00:23.850Z,88.30
2017-09-30T04:02:52.577Z,88.10
2017-09-30T04:05:20.516Z,88.10
2017-09-30T04:07:48.468Z,87.90
2017-09-30T04:10:17.142Z,87.50
2017-09-30T04:12:45.097Z,87.50
2017-09-30T04:15:13.007Z,87.90
2017-09-30T04:17:40.978Z,87.80
2017-09-30T04:20:08.890Z,87.50
2017-09-30T04:22:36.838Z,87.70
2017-09-30T04:25:04.749Z,87.80
2017-09-30T04:27:32.811Z,87.70
2017-09-30T04:30:00.718Z,87.60
2017-09-30T04:32:28.672Z,87.00
2017-09-30T04:34:56.577Z,87.70
2017-09-30T04:37:24.537Z,88.10
2017-09-30T04:39:52.500Z,88.00
2017-09-30T04:42:21.157Z,87.70
2017-09-30T04:44:49.104Z,87.60
2017-09-30T04:47:16.984Z,87.80
2017-09-30T04:49:44.928Z,88.00
2017-09-30T04:52:12.821Z,87.30
2017-09-30T04:54:40.778Z,87.30
2017-09-30T04:57:12.712Z,87.40
2017-09-30T04:59:40.667Z,86.90
2017-09-30T05:02:08.575Z,87.60
2017-09-30T05:04:44.258Z,88.10
2017-09-30T05:07:20.895Z,87.80
2017-09-30T05:09:51.692Z,87.70
2017-09-30T05:12:20.956Z,87.80
2017-09-30T05:14:52.119Z,87.90
2017-09-30T05:17:24.583Z,88.40
2017-09-30T05:19:57.219Z,87.80
2017-09-30T05:22:31.706Z,87.70
2017-09-30T05:25:00.999Z,87.00
2017-09-30T05:27:35.736Z,86.90
2017-09-30T05:30:05.515Z,87.00
2017-09-30T05:32:34.308Z,87.30
2017-09-30T05:35:02.301Z,87.30
2017-09-30T05:37:30.218Z,87.20
2017-09-30T05:39:58.201Z,87.80
2017-09-30T05:42:26.124Z,88.00
2017-09-30T05:44:54.090Z,88.00
2017-09-30T05:47:22.072Z,88.00
2017-09-30T05:49:50.815Z,87.60
2017-09-30T05:52:18.758Z,87.50
2017-09-30T05:54:46.770Z,88.00
2017-09-30T05:57:14.714Z,87.50
2017-09-30T05:59:42.691Z,87.90
2017-09-30T06:02:10.620Z,87.70
2017-09-30T06:04:38.529Z,87.80
2017-09-30T06:07:06.527Z,88.00
2017-09-30T06:09:34.474Z,87.60
2017-09-30T06:12:02.462Z,88.40
2017-09-30T06:14:30.385Z,87.50
2017-09-30T06:17:01.835Z,87.50
2017-09-30T06:19:29.802Z,87.40
2017-09-30T06:21:57.800Z,87.50
2017-09-30T06:24:25.731Z,87.10
2017-09-30T06:26:53.729Z,87.50
2017-09-30T06:29:21.659Z,87.30
2017-09-30T06:31:49.658Z,87.70
2017-09-30T06:34:17.612Z,87.70
2017-09-30T06:36:45.615Z,87.30
2017-09-30T06:39:13.535Z,87.60
2017-09-30T06:41:41.550Z,87.70
2017-09-30T06:44:09.494Z,87.50
2017-09-30T06:46:37.743Z,87.70
2017-09-30T06:49:06.416Z,88.10
2017-09-30T06:51:34.396Z,88.00
2017-09-30T06:54:03.078Z,89.30
2017-09-30T06:56:31.826Z,88.90
2017-09-30T06:58:59.750Z,88.80
2017-09-30T07:01:27.789Z,89.20
2017-09-30T07:03:55.764Z,89.80
2017-09-30T07:06:23.757Z,90.20
2017-09-30T07:08:52.718Z,90.60
2017-09-30T07:11:21.674Z,90.70
2017-09-30T07:13:49.776Z,90.70
2017-09-30T07:16:17.702Z,90.80
2017-09-30T07:18:45.683Z,90.90
2017-09-30T07:21:13.581Z,91.30
2017-09-30T07:23:41.544Z,91.30
2017-09-30T07:26:09.430Z,91.30
2017-09-30T07:28:37.441Z,91.20
2017-09-30T07:31:05.394Z,91.20
2017-09-30T07:33:33.375Z,91.00
2017-09-30T07:36:01.301Z,91.10
2017-09-30T07:38:29.446Z,91.20
2017-09-30T07:40:57.494Z,91.10
2017-09-30T07:43:26.232Z,91.30
2017-09-30T07:45:54.208Z,91.30
2017-09-30T07:48:22.124Z,91.60
2017-09-30T07:50:51.713Z,91.80
2017-09-30T07:53:19.711Z,91.80
2017-09-30T07:55:47.584Z,91.70
2017-09-30T07:58:15.530Z,91.70
2017-09-30T08:00:43.464Z,91.60
2017-09-30T08:03:11.549Z,91.60
2017-09-30T08:05:39.440Z,91.70
2017-09-30T08:08:07.465Z,91.70
2017-09-30T08:10:35.380Z,91.70
2017-09-30T08:13:04.137Z,91.50
2017-09-30T08:15:32.078Z,91.70
2017-09-30T08:17:59.989Z,91.80
2017-09-30T08:20:28.069Z,91.80
2017-09-30T08:22:56.160Z,91.80
2017-09-30T08:25:24.178Z,91.80
2017-09-30T08:27:52.168Z,91.80
2017-09-30T08:30:20.140Z,91.80
2017-09-30T08:32:48.098Z,91.90
2017-09-30T08:35:19.443Z,92.00
2017-09-30T08:37:47.385Z,91.90
2017-09-30T08:40:15.429Z,91.80
2017-09-30T08:42:44.267Z,91.70
2017-09-30T08:45:16.171Z,91.70
2017-09-30T08:47:44.221Z,91.40
2017-09-30T08:50:12.332Z,91.40
2017-09-30T08:52:40.324Z,91.30
2017-09-30T08:55:08.406Z,91.20
2017-09-30T08:57:36.531Z,91.30
2017-09-30T09:00:04.659Z,91.30
2017-09-30T09:02:32.641Z,91.30
2017-09-30T09:05:00.615Z,91.30
2017-09-30T09:07:28.553Z,90.60
2017-09-30T09:09:56.535Z,89.90
2017-09-30T09:12:24.542Z,88.80
2017-09-30T09:14:52.535Z,87.80
2017-09-30T09:17:20.678Z,87.90
2017-09-30T09:19:48.893Z,88.90
2017-09-30T09:22:16.839Z,88.70
2017-09-30T09:24:44.833Z,89.30
2017-09-30T09:27:13.993Z,89.20
2017-09-30T09:29:41.962Z,88.00
2017-09-30T09:32:09.996Z,87.00
2017-09-30T09:34:39.543Z,86.00
2017-09-30T09:37:09.827Z,87.00
2017-09-30T09:39:38.071Z,87.50
2017-09-30T09:42:06.169Z,87.50
2017-09-30T09:44:34.156Z,88.10
2017-09-30T09:47:03.452Z,87.40
2017-09-30T09:49:31.812Z,88.00
2017-09-30T09:51:59.894Z,88.20
2017-09-30T09:54:27.843Z,88.10
2017-09-30T09:56:55.873Z,89.30
2017-09-30T09:59:23.849Z,89.40
2017-09-30T10:01:51.873Z,89.00
2017-09-30T10:04:23.403Z,90.00
2017-09-30T10:06:51.408Z,90.00
2017-09-30T10:09:19.686Z,90.40
2017-09-30T10:11:47.647Z,90.40
2017-09-30T10:14:16.470Z,90.50
2017-09-30T10:16:59.468Z,90.60
2017-09-30T10:19:27.396Z,90.60
2017-09-30T10:21:59.740Z,90.50
2017-09-30T10:24:33.285Z,90.90
2017-09-30T10:27:05.712Z,90.90
2017-09-30T10:29:39.042Z,90.80
2017-09-30T10:32:14.160Z,90.80
2017-09-30T10:34:49.546Z,90.60
2017-09-30T10:37:20.219Z,90.60
2017-09-30T10:39:49.299Z,90.80
2017-09-30T10:42:21.801Z,90.70
2017-09-30T10:44:56.372Z,90.20
2017-09-30T10:47:27.133Z,90.60
2017-09-30T10:50:00.714Z,89.80
2017-09-30T10:52:32.422Z,90.30
2017-09-30T10:55:04.352Z,90.30
2017-09-30T10:57:38.617Z,90.20
2017-09-30T11:00:11.758Z,90.40
2017-09-30T11:02:48.456Z,90.50
2017-09-30T11:05:23.631Z,90.50
2017-09-30T11:07:55.568Z,90.80
2017-09-30T11:10:29.562Z,90.90
2017-09-30T11:12:58.145Z,90.50
2017-09-30T11:15:27.154Z,90.60
2017-09-30T11:18:02.208Z,90.90
2017-09-30T11:20:37.225Z,90.70
2017-09-30T11:23:07.324Z,90.70
2017-09-30T11:25:41.953Z,86.50
2017-09-30T11:28:11.966Z,88.20
2017-09-30T11:30:45.834Z,90.00
2017-09-30T11:33:21.738Z,90.30
2017-09-30T11:35:52.051Z,90.40
2017-09-30T11:38:21.961Z,90.30
2017-09-30T11:40:53.523Z,90.30
2017-09-30T11:43:24.464Z,90.30
2017-09-30T11:46:00.224Z,90.40
2017-09-30T11:48:37.247Z,89.80
2017-09-30T11:51:07.254Z,89.90
2017-09-30T11:53:35.685Z,90.00
2017-09-30T11:56:10.294Z,88.00
2017-09-30T11:58:42.995Z,86.30
2017-09-30T12:01:16.903Z,88.10
2017-09-30T12:03:45.256Z,87.60
2017-09-30T12:06:17.148Z,86.00
2017-09-30T12:08:50.635Z,85.90
2017-09-30T12:11:24.293Z,85.60
2017-09-30T12:13:53.520Z,86.80
2017-09-30T12:16:27.121Z,86.80
2017-09-30T12:18:55.715Z,85.90
2017-09-30T12:21:24.056Z,86.60
2017-09-30T12:23:59.112Z,87.60
2017-09-30T12:26:27.867Z,87.70
2017-09-30T12:28:57.325Z,88.10
2017-09-30T12:31:28.833Z,88.20
2017-09-30T12:34:00.698Z,87.50
2017-09-30T12:36:35.716Z,88.20
2017-09-30T12:39:09.643Z,88.20
2017-09-30T12:41:38.626Z,89.50
2017-09-30T12:44:11.880Z,89.50
2017-09-30T12:46:46.589Z,88.40
2017-09-30T12:49:22.298Z,89.10
2017-09-30T12:51:50.966Z,89.00
2017-09-30T12:54:24.321Z,88.80
2017-09-30T12:56:58.046Z,88.80
2017-09-30T12:59:27.601Z,88.30
2017-09-30T13:02:00.980Z,88.30
2017-09-30T13:04:33.971Z,88.60
2017-09-30T13:07:05.795Z,87.90
2017-09-30T13:09:37.809Z,87.20
2017-09-30T13:12:12.389Z,87.20
2017-09-30T13:14:47.219Z,88.10
2017-09-30T13:17:21.847Z,88.00
2017-09-30T13:19:50.552Z,88.30
2017-09-30T13:22:22.096Z,87.80
2017-09-30T13:24:50.213Z,86.60
2017-09-30T13:27:23.510Z,87.50
2017-09-30T13:29:52.757Z,87.60
2017-09-30T13:32:22.719Z,87.60
2017-09-30T13:34:55.317Z,87.70
2017-09-30T13:37:30.713Z,87.80
2017-09-30T13:39:59.143Z,88.70
2017-09-30T13:42:33.745Z,88.30
2017-09-30T13:45:08.421Z,87.40
2017-09-30T13:47:43.381Z,87.30
2017-09-30T13:50:12.390Z,87.50
2017-09-30T13:52:43.182Z,87.80
2017-09-30T13:55:12.520Z,87.60
2017-09-30T13:57:47.737Z,88.30
2017-09-30T14:00:17.383Z,88.70
2017-09-30T14:02:49.908Z,88.30
2017-09-30T14:05:26.708Z,87.60
2017-09-30T14:07:55.305Z,87.60
2017-09-30T14:10:25.879Z,87.20
2017-09-30T14:12:54.224Z,86.80
2017-09-30T14:15:26.056Z,86.70
2017-09-30T14:17:55.105Z,86.40
2017-09-30T14:20:27.482Z,85.30
2017-09-30T14:22:58.836Z,85.20
2017-09-30T14:25:35.839Z,85.70
2017-09-30T14:28:05.600Z,86.60
2017-09-30T14:30:39.255Z,86.20
2017-09-30T14:33:09.895Z,86.80
2017-09-30T14:35:39.539Z,86.30
2017-09-30T14:38:15.091Z,85.40
2017-09-30T14:40:47.125Z,86.40
2017-09-30T14:43:24.939Z,86.60
2017-09-30T14:45:54.169Z,86.60
2017-09-30T14:48:23.391Z,86.50
2017-09-30T14:50:58.466Z,86.10
2017-09-30T14:53:27.374Z,86.50
2017-09-30T14:55:56.428Z,86.10
2017-09-30T14:58:27.600Z,85.80
2017-09-30T15:00:56.139Z,87.50
2017-09-30T15:03:24.449Z,87.30
2017-09-30T15:05:53.930Z,87.50
2017-09-30T15:08:22.454Z,87.50
2017-09-30T15:10:50.825Z,87.20
2017-09-30T15:13:19.188Z,88.90
2017-09-30T15:15:48.737Z,87.00
2017-09-30T15:18:17.069Z,86.90
2017-09-30T15:20:45.161Z,87.50
2017-09-30T15:23:13.224Z,87.90
2017-09-30T15:25:41.703Z,87.40
2017-09-30T15:28:13.950Z,88.20
2017-09-30T15:30:42.039Z,88.10
2017-09-30T15:33:10.874Z,87.20
2017-09-30T15:35:38.930Z,87.20
2017-09-30T15:38:07.325Z,86.80
2017-09-30T15:40:35.356Z,87.00
2017-09-30T15:43:03.463Z,86.60
2017-09-30T15:45:31.583Z,86.90
2017-09-30T15:47:59.686Z,86.90
2017-09-30T15:50:28.498Z,87.00
2017-09-30T15:52:56.918Z,87.00
2017-09-30T15:55:24.988Z,87.80
2017-09-30T15:57:53.107Z,87.90
2017-09-30T16:00:21.154Z,88.00
2017-09-30T16:02:50.063Z,89.10
2017-09-30T16:05:18.115Z,89.00
2017-09-30T16:07:47.390Z,89.30
2017-09-30T16:10:15.426Z,89.70
2017-09-30T16:12:43.740Z,88.40
2017-09-30T16:15:11.816Z,88.10
2017-09-30T16:17:39.901Z,88.10
2017-09-30T16:20:07.978Z,88.10
2017-09-30T16:22:36.064Z,86.50
2017-09-30T16:25:12.414Z,86.50
2017-09-30T16:27:47.876Z,86.70
2017-09-30T16:30:20.403Z,87.00
2017-09-30T16:32:48.696Z,87.30
2017-09-30T16:35:16.707Z,87.20
2017-09-30T16:37:44.825Z,87.70
2017-09-30T16:40:12.839Z,88.20
2017-09-30T16:42:40.925Z,88.20
2017-09-30T16:45:08.956Z,88.00
2017-09-30T16:47:37.514Z,88.30
2017-09-30T16:50:05.562Z,88.60
2017-09-30T16:52:33.614Z,88.50
2017-09-30T16:55:01.630Z,87.70
2017-09-30T16:57:29.665Z,88.50
2017-09-30T16:59:57.816Z,88.00
2017-09-30T17:02:26.275Z,87.50
2017-09-30T17:04:54.301Z,87.30
2017-09-30T17:07:26.472Z,87.20
2017-09-30T17:09:55.279Z,87.30
2017-09-30T17:12:23.378Z,87.30
2017-09-30T17:14:53.925Z,87.60
2017-09-30T17:17:22.069Z,87.70
2017-09-30T17:19:50.107Z,88.00
2017-09-30T17:22:18.142Z,88.00
2017-09-30T17:24:46.138Z,87.70
2017-09-30T17:27:14.093Z,87.90
2017-09-30T17:29:42.146Z,87.70
2017-09-30T17:32:10.102Z,88.30
2017-09-30T17:34:38.145Z,88.30
2017-09-30T17:37:06.169Z,88.10
2017-09-30T17:39:34.869Z,88.60
2017-09-30T17:42:02.835Z,88.90
2017-09-30T17:44:30.899Z,88.90
2017-09-30T17:46:58.942Z,87.80
2017-09-30T17:49:27.234Z,88.00
2017-09-30T17:51:55.225Z,88.60
2017-09-30T17:54:23.280Z,89.10
2017-09-30T17:56:51.250Z,88.90
2017-09-30T17:59:19.304Z,88.70
2017-09-30T18:01:47.263Z,89.10
2017-09-30T18:04:18.808Z,88.50
2017-09-30T18:06:47.959Z,88.00
2017-09-30T18:09:16.216Z,88.30
2017-09-30T18:11:44.165Z,88.30
2017-09-30T18:14:12.234Z,88.30
2017-09-30T18:16:40.894Z,88.30
2017-09-30T18:19:08.955Z,88.10
2017-09-30T18:21:37.914Z,89.00
2017-09-30T18:24:06.275Z,89.10
2017-09-30T18:26:34.277Z,88.00
2017-09-30T18:29:12.332Z,88.30
2017-09-30T18:31:46.346Z,89.10
2017-09-30T18:34:19.316Z,89.10
2017-09-30T18:36:51.314Z,89.60
2017-09-30T18:39:23.319Z,89.60
2017-09-30T18:41:53.888Z,89.00
2017-09-30T18:44:25.088Z,88.10
2017-09-30T18:46:53.089Z,88.60
2017-09-30T18:49:21.070Z,88.50
2017-09-30T18:51:49.025Z,88.70
2017-09-30T18:54:17.031Z,87.80
2017-09-30T18:56:45.726Z,87.20
2017-09-30T18:59:13.699Z,87.20
2017-09-30T19:01:41.648Z,87.50
2017-09-30T19:04:10.405Z,86.50
2017-09-30T19:06:38.546Z,86.50
2017-09-30T19:09:06.537Z,87.30
2017-09-30T19:11:34.512Z,88.90
2017-09-30T19:14:02.751Z,88.10
2017-09-30T19:16:30.695Z,88.40
2017-09-30T19:19:00.323Z,87.30
2017-09-30T19:21:28.232Z,87.30
2017-09-30T19:23:56.233Z,87.70
2017-09-30T19:26:24.178Z,87.00
2017-09-30T19:28:56.823Z,87.90
2017-09-30T19:31:24.762Z,87.40
2017-09-30T19:33:53.514Z,87.90
2017-09-30T19:36:21.489Z,87.80
2017-09-30T19:38:49.499Z,87.40
2017-09-30T19:41:17.503Z,87.40
2017-09-30T19:43:45.545Z,87.90
2017-09-30T19:46:13.524Z,88.30
2017-09-30T19:48:41.558Z,87.90
2017-09-30T19:51:09.626Z,87.90
2017-09-30T19:53:37.600Z,88.70
2017-09-30T19:56:05.595Z,88.30
2017-09-30T19:58:36.565Z,88.10
2017-09-30T20:01:04.555Z,88.10
2017-09-30T20:03:32.498Z,88.00
2017-09-30T20:06:00.469Z,88.80
2017-09-30T20:08:28.460Z,88.20
2017-09-30T20:10:56.451Z,87.60
2017-09-30T20:13:24.367Z,87.90
2017-09-30T20:15:52.423Z,88.20
2017-09-30T20:18:20.360Z,88.40
2017-09-30T20:20:48.333Z,87.30
2017-09-30T20:23:16.270Z,87.50
2017-09-30T20:25:44.260Z,88.40
2017-09-30T20:28:12.295Z,88.10
2017-09-30T20:30:40.327Z,87.50
2017-09-30T20:33:08.254Z,87.70
2017-09-30T20:35:36.241Z,87.60
2017-09-30T20:38:04.150Z,88.30
2017-09-30T20:40:32.148Z,88.40
2017-09-30T20:43:02.356Z,88.70
2017-09-30T20:45:30.496Z,88.30
2017-09-30T20:47:58.428Z,88.30
2017-09-30T20:50:26.456Z,88.50
2017-09-30T20:52:54.396Z,88.40
2017-09-30T20:55:22.364Z,88.20
2017-09-30T20:57:50.411Z,88.50
2017-09-30T21:00:18.395Z,88.60
2017-09-30T21:02:46.332Z,88.60
2017-09-30T21:05:14.339Z,88.30
2017-09-30T21:07:42.304Z,88.40
2017-09-30T21:10:10.258Z,88.60
2017-09-30T21:12:38.272Z,88.70
2017-09-30T21:15:06.231Z,89.00
2017-09-30T21:17:34.226Z,89.30
2017-09-30T21:20:02.158Z,88.80
2017-09-30T21:22:30.154Z,89.10
2017-09-30T21:24:58.095Z,88.90
2017-09-30T21:27:29.828Z,89.20
2017-09-30T21:29:57.807Z,88.80
2017-09-30T21:32:25.774Z,88.70
2017-09-30T21:34:53.740Z,89.50
2017-09-30T21:37:21.721Z,89.50
2017-09-30T21:39:49.749Z,89.00
2017-09-30T21:42:17.757Z,88.40
2017-09-30T21:44:45.772Z,89.10
2017-09-30T21:47:13.751Z,89.70
2017-09-30T21:49:41.700Z,89.40
2017-09-30T21:52:09.714Z,89.60
2017-09-30T21:54:37.646Z,89.40
2017-09-30T21:57:05.742Z,89.50
2017-09-30T21:59:33.678Z,89.50
2017-09-30T22:02:01.647Z,89.50
2017-09-30T22:04:30.754Z,89.50
2017-09-30T22:06:59.283Z,89.30
2017-09-30T22:09:27.268Z,89.60
2017-09-30T22:12:02.719Z,89.50
2017-09-30T22:14:38.325Z,89.40
2017-09-30T22:17:14.067Z,89.00
2017-09-30T22:19:48.849Z,89.20
2017-09-30T22:22:22.854Z,89.10
2017-09-30T22:24:57.249Z,89.50
2017-09-30T22:27:33.508Z,89.20
2017-09-30T22:30:06.020Z,89.60
2017-09-30T22:32:34.203Z,89.60
2017-09-30T22:35:02.182Z,90.20
2017-09-30T22:37:31.423Z,90.20
2017-09-30T22:40:00.112Z,90.40
2017-09-30T22:42:28.168Z,90.70
2017-09-30T22:44:57.918Z,90.60
2017-09-30T22:47:26.665Z,90.50
2017-09-30T22:49:54.586Z,90.40
2017-09-30T22:52:23.300Z,89.80
2017-09-30T22:54:51.245Z,89.80
2017-09-30T22:57:20.784Z,90.00
2017-09-30T22:59:48.913Z,90.20
2017-09-30T23:02:18.496Z,90.20
2017-09-30T23:04:46.423Z,90.00
2017-09-30T23:07:14.488Z,89.90
2017-09-30T23:09:42.421Z,89.30
2017-09-30T23:12:10.445Z,90.10
2017-09-30T23:14:38.365Z,90.20
2017-09-30T23:17:06.350Z,89.20
2017-09-30T23:19:35.048Z,90.00
2017-09-30T23:22:03.040Z,90.00
2017-09-30T23:24:31.917Z,89.50
2017-09-30T23:26:59.911Z,89.20
2017-09-30T23:29:27.881Z,89.10
2017-09-30T23:31:55.860Z,88.70
2017-09-30T23:34:23.808Z,88.80
2017-09-30T23:36:51.989Z,89.10
2017-09-30T23:39:19.950Z,88.90
2017-09-30T23:41:48.199Z,88.40
2017-09-30T23:44:16.901Z,89.00
2017-09-30T23:46:44.975Z,89.00
2017-09-30T23:49:12.956Z,88.60
2017-09-30T23:51:40.940Z,88.10
2017-09-30T23:54:08.964Z,88.40
2017-09-30T23:56:37.661Z,88.50
2017-09-30T23:59:06.496Z,88.90
